Time;durP1;ratioP1;P1;durP2;ratioP2;P2;SDS_P1;SDS_P2;PMS_P1;PMS_P2;Temp;Humidity;BMP_temperature;BMP_pressure;BME280_temperature;BME280_humidity;BME280_pressure;Samples;Min_cycle;Max_cycle;Signal;HPM_P1;HPM_P2
2022/06/27 00:01:25;;;;;;;4.10;3.90;;;;;;;;;;5004751;28;20202;-58
2022/06/27 00:03:51;;;;;;;2.70;2.60;;;;;;;;;;5006416;28;20984;-58
2022/06/27 00:06:19;;;;;;;3.40;3.30;;;;;;;;;;5008350;28;20244;-58
2022/06/27 00:08:46;;;;;;;3.70;3.60;;;;;;;;;;4993108;28;20215;-58
2022/06/27 00:11:12;;;;;;;2.60;2.50;;;;;;;;;;5013406;28;20206;-57
2022/06/27 00:13:38;;;;;;;2.80;2.70;;;;;;;;;;5003851;28;20192;-56
2022/06/27 00:16:04;;;;;;;2.47;2.37;;;;;;;;;;5010868;28;20290;-58
2022/06/27 00:18:30;;;;;;;2.03;1.93;;;;;;;;;;5009636;28;20194;-58
2022/06/27 00:20:56;;;;;;;2.30;2.20;;;;;;;;;;5011202;28;20197;-58
2022/06/27 00:23:22;;;;;;;2.50;2.40;;;;;;;;;;5003582;28;20182;-58
2022/06/27 00:25:48;;;;;;;2.20;2.10;;;;;;;;;;5009753;28;22483;-58
2022/06/27 00:28:14;;;;;;;2.30;2.20;;;;;;;;;;5005431;28;20217;-57
2022/06/27 00:30:40;;;;;;;1.90;1.80;;;;;;;;;;5006907;28;20584;-58
2022/06/27 00:33:06;;;;;;;1.73;1.70;;;;;;;;;;5010445;28;20185;-58
2022/06/27 00:35:32;;;;;;;1.87;1.77;;;;;;;;;;4995331;28;20824;-58
2022/06/27 00:37:58;;;;;;;1.90;1.80;;;;;;;;;;5003914;28;20185;-58
2022/06/27 00:40:24;;;;;;;2.10;2.00;;;;;;;;;;4999249;28;20205;-58
2022/06/27 00:42:50;;;;;;;2.20;2.10;;;;;;;;;;5007119;28;20198;-58
2022/06/27 00:45:16;;;;;;;1.60;1.60;;;;;;;;;;5009431;28;20279;-58
2022/06/27 00:47:42;;;;;;;1.90;1.80;;;;;;;;;;5006440;28;20212;-58
2022/06/27 00:50:08;;;;;;;2.00;1.90;;;;;;;;;;5001151;28;20825;-58
2022/06/27 00:52:34;;;;;;;2.00;1.90;;;;;;;;;;5002787;28;21664;-58
2022/06/27 00:55:00;;;;;;;2.00;1.90;;;;;;;;;;5004580;28;20199;-59
2022/06/27 00:57:26;;;;;;;2.07;1.97;;;;;;;;;;5002859;28;20188;-59
2022/06/27 00:59:52;;;;;;;1.93;1.83;;;;;;;;;;5005410;28;20185;-58
2022/06/27 01:02:18;;;;;;;2.00;1.90;;;;;;;;;;5002858;28;20217;-58
2022/06/27 01:04:44;;;;;;;2.00;1.90;;;;;;;;;;5005964;28;20430;-58
2022/06/27 01:07:10;;;;;;;2.10;2.00;;;;;;;;;;5004486;28;20189;-58
2022/06/27 01:09:36;;;;;;;2.00;1.90;;;;;;;;;;5007301;28;21045;-58
2022/06/27 01:12:02;;;;;;;1.67;1.67;;;;;;;;;;5001213;28;20209;-59
2022/06/27 01:14:28;;;;;;;1.70;1.70;;;;;;;;;;5007481;28;20182;-58
2022/06/27 01:16:54;;;;;;;1.87;1.77;;;;;;;;;;5005343;28;20269;-58
2022/06/27 01:19:20;;;;;;;1.60;1.60;;;;;;;;;;5006050;28;21311;-58
2022/06/27 01:21:47;;;;;;;1.80;1.70;;;;;;;;;;5001799;28;20202;-58
2022/06/27 01:24:13;;;;;;;1.57;1.57;;;;;;;;;;5004939;28;20300;-58
2022/06/27 01:26:39;;;;;;;1.90;1.80;;;;;;;;;;5008102;28;20233;-59
2022/06/27 01:29:05;;;;;;;1.90;1.80;;;;;;;;;;4998543;28;20305;-59
2022/06/27 01:31:31;;;;;;;1.60;1.60;;;;;;;;;;5009091;28;20197;-59
2022/06/27 01:33:57;;;;;;;1.90;1.80;;;;;;;;;;5015599;28;20746;-58
2022/06/27 01:36:41;;;;;;;2.03;1.93;;;;;;;;;;5009728;28;20197;-59
2022/06/27 01:39:07;;;;;;;2.20;2.10;;;;;;;;;;5013956;28;20208;-59
2022/06/27 01:41:33;;;;;;;1.60;1.60;;;;;;;;;;5008436;28;20272;-58
2022/06/27 01:43:59;;;;;;;1.90;1.80;;;;;;;;;;5007458;28;20238;-59
2022/06/27 01:46:25;;;;;;;1.90;1.80;;;;;;;;;;5011601;28;20999;-59
2022/06/27 01:48:51;;;;;;;2.00;1.90;;;;;;;;;;5008705;28;20213;-58
2022/06/27 01:51:17;;;;;;;2.20;2.10;;;;;;;;;;5009601;28;20212;-58
2022/06/27 01:53:43;;;;;;;1.87;1.77;;;;;;;;;;4994931;28;20213;-59
2022/06/27 01:56:09;;;;;;;2.17;2.07;;;;;;;;;;5010332;28;20184;-59
2022/06/27 01:58:35;;;;;;;2.13;2.03;;;;;;;;;;5008193;28;20315;-58
2022/06/27 02:01:01;;;;;;;2.00;1.90;;;;;;;;;;5006062;28;20185;-58
2022/06/27 02:03:27;;;;;;;2.00;1.90;;;;;;;;;;4993609;28;20566;-58
2022/06/27 02:05:53;;;;;;;2.00;1.90;;;;;;;;;;4993534;28;20913;-58
2022/06/27 02:08:20;;;;;;;1.90;1.80;;;;;;;;;;5001323;28;20230;-58
2022/06/27 02:10:46;;;;;;;1.70;1.70;;;;;;;;;;5007911;28;20189;-59
2022/06/27 02:13:12;;;;;;;2.00;1.90;;;;;;;;;;5002999;28;20695;-59
2022/06/27 02:15:58;;;;;;;1.90;1.80;;;;;;;;;;5009412;28;20197;-59
2022/06/27 02:18:24;;;;;;;2.00;1.90;;;;;;;;;;4998716;28;20319;-58
2022/06/27 02:20:50;;;;;;;2.10;2.00;;;;;;;;;;4985161;28;20738;-58
2022/06/27 02:23:16;;;;;;;2.00;1.90;;;;;;;;;;5009785;28;20655;-58
2022/06/27 02:25:42;;;;;;;2.00;1.90;;;;;;;;;;5006945;28;20597;-58
2022/06/27 02:28:08;;;;;;;2.03;1.93;;;;;;;;;;5009654;28;20576;-57
2022/06/27 02:30:34;;;;;;;2.20;2.10;;;;;;;;;;4989264;28;20649;-57
2022/06/27 02:33:00;;;;;;;2.20;2.10;;;;;;;;;;5006960;28;20785;-58
2022/06/27 02:35:27;;;;;;;2.00;1.90;;;;;;;;;;5001898;28;20610;-58
2022/06/27 02:37:53;;;;;;;2.23;2.13;;;;;;;;;;5006998;28;20639;-58
2022/06/27 02:40:19;;;;;;;1.90;1.80;;;;;;;;;;5009732;28;20201;-58
2022/06/27 02:42:45;;;;;;;2.13;2.03;;;;;;;;;;4993298;28;20243;-58
2022/06/27 02:45:11;;;;;;;2.17;2.07;;;;;;;;;;5006766;28;20176;-58
2022/06/27 02:47:38;;;;;;;2.30;2.20;;;;;;;;;;4988618;28;20304;-58
2022/06/27 02:50:04;;;;;;;2.10;2.00;;;;;;;;;;5001645;28;20287;-58
2022/06/27 02:52:36;;;;;;;2.33;2.23;;;;;;;;;;5010532;28;20607;-58
2022/06/27 02:55:03;;;;;;;2.30;2.20;;;;;;;;;;4993568;28;20321;-58
2022/06/27 02:57:32;;;;;;;2.20;2.10;;;;;;;;;;5008504;28;20190;-58
2022/06/27 02:59:58;;;;;;;2.53;2.43;;;;;;;;;;5004036;28;20194;-58
2022/06/27 03:02:25;;;;;;;2.07;1.97;;;;;;;;;;4987524;28;20192;-59
2022/06/27 03:04:51;;;;;;;2.10;2.00;;;;;;;;;;5004021;28;20214;-58
2022/06/27 03:07:17;;;;;;;2.00;1.90;;;;;;;;;;5005736;28;20293;-58
2022/06/27 03:09:43;;;;;;;2.47;2.37;;;;;;;;;;5007909;28;20190;-58
2022/06/27 03:12:09;;;;;;;2.10;2.00;;;;;;;;;;5005645;28;20192;-58
2022/06/27 03:14:35;;;;;;;2.13;2.03;;;;;;;;;;5005438;28;20181;-58
2022/06/27 03:17:01;;;;;;;2.07;1.97;;;;;;;;;;5009285;28;20178;-58
2022/06/27 03:19:27;;;;;;;2.63;2.53;;;;;;;;;;5005326;28;20201;-58
2022/06/27 03:21:53;;;;;;;2.63;2.53;;;;;;;;;;5008250;28;20258;-58
2022/06/27 03:24:20;;;;;;;2.83;2.73;;;;;;;;;;5006401;28;20643;-58
2022/06/27 03:26:46;;;;;;;2.83;2.73;;;;;;;;;;5006430;28;20248;-58
2022/06/27 03:29:12;;;;;;;2.50;2.40;;;;;;;;;;5001563;28;20819;-58
2022/06/27 03:31:38;;;;;;;3.17;3.07;;;;;;;;;;5006875;28;21048;-58
2022/06/27 03:34:03;;;;;;;2.53;2.43;;;;;;;;;;5011339;28;20208;-58
2022/06/27 03:36:29;;;;;;;2.43;2.33;;;;;;;;;;5007854;28;20189;-58
2022/06/27 03:38:55;;;;;;;3.57;3.43;;;;;;;;;;5005186;28;20634;-58
2022/06/27 03:41:21;;;;;;;6.43;6.13;;;;;;;;;;5004221;28;20567;-58
2022/06/27 03:43:47;;;;;;;4.10;3.90;;;;;;;;;;5009949;28;20474;-58
2022/06/27 03:46:13;;;;;;;6.57;6.27;;;;;;;;;;5007078;28;20252;-58
2022/06/27 03:51:24;;;;;;;2.73;2.63;;;;;;;;;;5004430;28;20770;-59
2022/06/27 03:53:51;;;;;;;2.73;2.63;;;;;;;;;;5005254;28;20184;-58
2022/06/27 03:56:17;;;;;;;3.03;2.93;;;;;;;;;;5006100;28;20185;-58
2022/06/27 03:58:43;;;;;;;3.07;2.97;;;;;;;;;;5006198;28;20211;-58
2022/06/27 04:01:09;;;;;;;3.33;3.23;;;;;;;;;;4998197;28;20884;-58
2022/06/27 04:03:35;;;;;;;3.90;3.73;;;;;;;;;;5001667;28;20193;-58
2022/06/27 04:06:01;;;;;;;2.90;2.80;;;;;;;;;;4999808;28;20240;-59
2022/06/27 04:08:27;;;;;;;5.03;4.83;;;;;;;;;;5003410;28;20205;-59
2022/06/27 04:10:53;;;;;;;8.70;8.30;;;;;;;;;;5005730;28;20193;-58
2022/06/27 04:13:19;;;;;;;5.10;4.90;;;;;;;;;;5004807;28;20192;-58
2022/06/27 04:15:45;;;;;;;4.13;3.97;;;;;;;;;;5001460;28;20650;-58
2022/06/27 04:18:11;;;;;;;9.77;9.33;;;;;;;;;;5005725;28;20693;-58
2022/06/27 04:20:37;;;;;;;6.23;5.97;;;;;;;;;;5004660;28;20662;-58
2022/06/27 04:23:03;;;;;;;5.57;5.33;;;;;;;;;;4999496;28;21606;-58
2022/06/27 04:25:29;;;;;;;11.63;11.10;;;;;;;;;;5006017;28;20236;-58
2022/06/27 04:27:54;;;;;;;8.90;8.50;;;;;;;;;;5008037;28;20201;-58
2022/06/27 04:30:20;;;;;;;5.07;4.87;;;;;;;;;;5003743;28;20224;-58
2022/06/27 04:32:48;;;;;;;4.10;3.90;;;;;;;;;;5005536;28;20190;-58
2022/06/27 04:35:14;;;;;;;3.40;3.30;;;;;;;;;;5009494;28;20224;-58
2022/06/27 04:37:42;;;;;;;2.97;2.87;;;;;;;;;;5009516;28;20634;-58
2022/06/27 04:40:10;;;;;;;3.40;3.30;;;;;;;;;;5012297;28;20182;-59
2022/06/27 04:42:36;;;;;;;5.03;4.83;;;;;;;;;;5008688;28;20761;-58
2022/06/27 04:45:03;;;;;;;8.50;8.13;;;;;;;;;;5002862;28;20196;-58
2022/06/27 04:47:29;;;;;;;5.93;5.67;;;;;;;;;;5011893;28;20204;-58
2022/06/27 04:49:56;;;;;;;5.10;4.90;;;;;;;;;;5008057;28;20654;-58
2022/06/27 04:52:22;;;;;;;5.13;4.93;;;;;;;;;;5007376;28;20223;-58
2022/06/27 04:54:49;;;;;;;5.43;5.23;;;;;;;;;;5006015;28;20193;-58
2022/06/27 04:57:15;;;;;;;9.17;8.77;;;;;;;;;;5011777;28;20678;-58
2022/06/27 04:59:41;;;;;;;11.23;10.73;;;;;;;;;;5007633;28;20197;-57
2022/06/27 05:02:08;;;;;;;14.97;14.30;;;;;;;;;;5002811;28;20185;-58
2022/06/27 05:04:34;;;;;;;21.07;20.10;;;;;;;;;;5004894;28;20193;-58
2022/06/27 05:07:01;;;;;;;22.70;21.67;;;;;;;;;;5000841;28;20329;-58
2022/06/27 05:09:27;;;;;;;37.67;35.90;;;;;;;;;;5002245;28;20218;-59
2022/06/27 05:11:54;;;;;;;68.13;65.03;;;;;;;;;;5006874;28;20186;-58
2022/06/27 05:14:20;;;;;;;127.47;121.37;;;;;;;;;;5010021;28;20177;-58
2022/06/27 05:16:47;;;;;;;275.00;256.87;;;;;;;;;;5006398;28;20181;-58
2022/06/27 05:19:13;;;;;;;15.37;14.67;;;;;;;;;;5007665;28;20213;-58
2022/06/27 05:21:39;;;;;;;36.57;34.90;;;;;;;;;;5003492;28;20196;-58
2022/06/27 05:24:05;;;;;;;140.60;133.77;;;;;;;;;;4981562;28;20192;-58
2022/06/27 05:26:31;;;;;;;230.40;215.50;;;;;;;;;;5003576;28;20677;-58
2022/06/27 05:28:57;;;;;;;4.50;4.30;;;;;;;;;;5012654;28;20262;-58
2022/06/27 05:31:23;;;;;;;5.10;4.90;;;;;;;;;;5009954;28;20199;-58
2022/06/27 05:33:49;;;;;;;5.93;5.70;;;;;;;;;;5010914;28;20200;-58
2022/06/27 05:36:15;;;;;;;3.43;3.33;;;;;;;;;;5007414;28;20556;-58
2022/06/27 05:38:41;;;;;;;3.30;3.20;;;;;;;;;;5005740;28;20193;-58
2022/06/27 05:41:07;;;;;;;2.93;2.83;;;;;;;;;;5006704;28;20217;-60
2022/06/27 05:43:33;;;;;;;2.80;2.70;;;;;;;;;;5011907;28;20190;-58
2022/06/27 05:46:00;;;;;;;3.17;3.07;;;;;;;;;;5007301;28;20545;-58
2022/06/27 05:48:26;;;;;;;3.60;3.50;;;;;;;;;;5008409;28;20224;-58
2022/06/27 05:50:52;;;;;;;3.30;3.20;;;;;;;;;;5002101;28;20220;-60
2022/06/27 05:53:18;;;;;;;3.13;3.03;;;;;;;;;;5008921;28;20608;-58
2022/06/27 05:55:46;;;;;;;3.13;3.03;;;;;;;;;;5014222;28;20606;-59
2022/06/27 05:58:13;;;;;;;3.23;3.13;;;;;;;;;;5016058;28;20196;-59
2022/06/27 06:00:39;;;;;;;3.43;3.33;;;;;;;;;;5008547;28;20273;-57
2022/06/27 06:03:05;;;;;;;3.40;3.30;;;;;;;;;;5003568;28;20189;-58
2022/06/27 06:05:31;;;;;;;2.80;2.70;;;;;;;;;;5014666;28;20220;-57
2022/06/27 06:08:02;;;;;;;3.17;3.07;;;;;;;;;;5011042;28;22481;-63
2022/06/27 06:10:28;;;;;;;3.50;3.40;;;;;;;;;;5003863;28;20194;-62
2022/06/27 06:12:54;;;;;;;2.93;2.83;;;;;;;;;;5001137;28;20173;-62
2022/06/27 06:15:20;;;;;;;2.80;2.70;;;;;;;;;;5004446;28;20247;-62
2022/06/27 06:17:47;;;;;;;3.17;3.07;;;;;;;;;;5002875;28;20230;-62
2022/06/27 06:20:14;;;;;;;3.07;2.97;;;;;;;;;;4998495;28;20198;-60
2022/06/27 06:22:40;;;;;;;4.03;3.87;;;;;;;;;;5003642;28;20223;-63
2022/06/27 06:25:07;;;;;;;5.73;5.50;;;;;;;;;;5004713;28;20239;-62
2022/06/27 06:27:35;;;;;;;8.33;7.97;;;;;;;;;;5014628;28;20266;-62
2022/06/27 06:30:02;;;;;;;6.07;5.80;;;;;;;;;;5007054;28;20239;-62
2022/06/27 06:32:29;;;;;;;6.80;6.50;;;;;;;;;;5000727;28;20190;-59
2022/06/27 06:34:55;;;;;;;4.93;4.73;;;;;;;;;;5005730;28;20719;-60
2022/06/27 06:37:22;;;;;;;4.67;4.47;;;;;;;;;;5008746;28;20674;-59
2022/06/27 06:39:48;;;;;;;5.93;5.67;;;;;;;;;;5001999;28;20212;-59
2022/06/27 06:42:14;;;;;;;5.20;5.00;;;;;;;;;;5001345;28;20193;-59
2022/06/27 06:44:40;;;;;;;24.77;23.63;;;;;;;;;;5003108;28;20716;-59
2022/06/27 06:47:06;;;;;;;26.33;25.13;;;;;;;;;;5007147;28;20193;-59
2022/06/27 06:49:32;;;;;;;16.97;16.20;;;;;;;;;;5003228;28;20279;-59
2022/06/27 06:51:59;;;;;;;14.27;13.63;;;;;;;;;;4988490;28;20268;-59
2022/06/27 06:54:26;;;;;;;9.63;9.20;;;;;;;;;;5005335;28;20186;-59
2022/06/27 06:56:52;;;;;;;12.20;11.67;;;;;;;;;;5006044;28;20764;-59
2022/06/27 06:59:19;;;;;;;12.87;12.30;;;;;;;;;;5004814;28;20185;-59
2022/06/27 07:01:46;;;;;;;6.30;6.00;;;;;;;;;;4999521;28;20697;-59
2022/06/27 07:04:12;;;;;;;5.30;5.10;;;;;;;;;;4998243;28;21121;-59
2022/06/27 07:06:40;;;;;;;5.47;5.27;;;;;;;;;;5000976;28;20685;-59
2022/06/27 07:09:06;;;;;;;5.23;5.03;;;;;;;;;;5000375;28;20952;-59
2022/06/27 07:11:32;;;;;;;5.20;5.00;;;;;;;;;;5002168;28;20203;-58
2022/06/27 07:13:58;;;;;;;5.83;5.60;;;;;;;;;;5005645;28;20182;-58
2022/06/27 07:16:24;;;;;;;1.70;1.70;;;;;;;;;;4998424;28;20192;-57
2022/06/27 07:18:51;;;;;;;1.80;1.70;;;;;;;;;;5002781;28;20578;-58
2022/06/27 07:21:17;;;;;;;1.90;1.80;;;;;;;;;;5000984;28;20961;-58
2022/06/27 07:23:44;;;;;;;1.90;1.80;;;;;;;;;;4997877;28;20200;-58
2022/06/27 07:26:10;;;;;;;1.67;1.67;;;;;;;;;;5003997;28;20719;-58
2022/06/27 07:28:36;;;;;;;1.88;1.77;;;;;;;;;;5007419;28;20212;-58
2022/06/27 07:31:08;;;;;;;1.60;1.60;;;;;;;;;;5001771;28;20631;-58
2022/06/27 07:33:35;;;;;;;1.75;1.70;;;;;;;;;;4999474;28;20185;-58
2022/06/27 07:36:01;;;;;;;1.60;1.60;;;;;;;;;;4996177;28;20193;-58
2022/06/27 07:38:28;;;;;;;1.73;1.70;;;;;;;;;;4992009;28;20198;-58
2022/06/27 07:40:54;;;;;;;1.50;1.50;;;;;;;;;;5004965;28;20189;-58
2022/06/27 07:43:20;;;;;;;1.50;1.50;;;;;;;;;;5008077;28;20191;-58
2022/06/27 07:45:47;;;;;;;1.50;1.50;;;;;;;;;;5004821;28;20464;-58
2022/06/27 07:48:16;;;;;;;1.40;1.40;;;;;;;;;;5010044;28;20205;-57
2022/06/27 07:50:42;;;;;;;1.50;1.50;;;;;;;;;;4995524;28;20189;-57
2022/06/27 07:53:13;;;;;;;1.50;1.50;;;;;;;;;;4985439;28;20185;-57
2022/06/27 07:55:42;;;;;;;1.52;1.52;;;;;;;;;;4982058;28;20861;-57
2022/06/27 07:58:09;;;;;;;1.50;1.50;;;;;;;;;;4995341;28;20196;-57
2022/06/27 08:00:35;;;;;;;1.50;1.50;;;;;;;;;;4998484;28;20189;-57
2022/06/27 08:03:36;;;;;;;1.50;1.50;;;;;;;;;;4982006;28;20200;-57
2022/06/27 08:05:51;;;;;;;1.50;1.50;;;;;;;;;;4992796;28;20232;-57
2022/06/27 08:08:17;;;;;;;1.70;1.70;;;;;;;;;;4992690;28;20209;-57
2022/06/27 08:10:43;;;;;;;1.50;1.50;;;;;;;;;;5000149;28;20185;-57
2022/06/27 08:13:09;;;;;;;1.70;1.70;;;;;;;;;;5007567;28;20756;-58
2022/06/27 08:15:35;;;;;;;1.60;1.60;;;;;;;;;;4999680;28;20269;-58
2022/06/27 08:18:02;;;;;;;1.60;1.60;;;;;;;;;;5006266;28;21182;-58
2022/06/27 08:20:28;;;;;;;1.90;1.80;;;;;;;;;;4981230;28;20203;-58
2022/06/27 08:22:54;;;;;;;1.60;1.60;;;;;;;;;;5001566;28;20327;-57
2022/06/27 08:25:19;;;;;;;1.85;1.75;;;;;;;;;;5005016;28;20241;-57
2022/06/27 08:27:46;;;;;;;1.60;1.60;;;;;;;;;;4996543;28;20208;-57
2022/06/27 08:30:14;;;;;;;1.60;1.60;;;;;;;;;;4995880;28;20824;-57
2022/06/27 08:32:41;;;;;;;1.60;1.60;;;;;;;;;;4998138;28;20633;-57
2022/06/27 08:35:07;;;;;;;1.77;1.67;;;;;;;;;;5004208;28;20189;-58
2022/06/27 08:37:33;;;;;;;1.50;1.50;;;;;;;;;;4998696;28;20182;-58
2022/06/27 08:39:59;;;;;;;1.60;1.60;;;;;;;;;;5002284;28;20737;-58
2022/06/27 08:42:25;;;;;;;1.50;1.50;;;;;;;;;;4995896;28;20182;-57
2022/06/27 08:44:51;;;;;;;1.60;1.60;;;;;;;;;;5001541;28;20985;-57
2022/06/27 08:47:19;;;;;;;1.50;1.50;;;;;;;;;;5000543;28;20185;-57
2022/06/27 08:49:46;;;;;;;1.52;1.52;;;;;;;;;;5001656;28;20209;-58
2022/06/27 08:52:12;;;;;;;1.60;1.60;;;;;;;;;;4996994;28;20186;-58
2022/06/27 08:54:40;;;;;;;1.85;1.75;;;;;;;;;;4984576;28;21297;-58
2022/06/27 08:57:08;;;;;;;1.83;1.73;;;;;;;;;;4997791;28;20517;-58
2022/06/27 08:59:34;;;;;;;1.60;1.60;;;;;;;;;;4987398;28;20258;-58
2022/06/27 09:02:00;;;;;;;1.60;1.60;;;;;;;;;;4998089;28;20185;-56
2022/06/27 09:04:26;;;;;;;1.60;1.60;;;;;;;;;;5001885;28;20193;-56
2022/06/27 09:06:54;;;;;;;1.63;1.63;;;;;;;;;;5000927;28;20247;-56
2022/06/27 09:09:23;;;;;;;1.50;1.50;;;;;;;;;;5009075;28;20272;-56
2022/06/27 09:11:49;;;;;;;1.50;1.50;;;;;;;;;;4985457;28;20199;-56
2022/06/27 09:14:39;;;;;;;1.60;1.60;;;;;;;;;;5004741;28;20181;-56
2022/06/27 09:17:09;;;;;;;1.70;1.70;;;;;;;;;;5002254;28;20658;-58
2022/06/27 09:20:08;;;;;;;1.60;1.60;;;;;;;;;;5009164;28;20189;-58
2022/06/27 09:22:35;;;;;;;1.60;1.60;;;;;;;;;;4965340;28;20678;-58
2022/06/27 09:25:05;;;;;;;1.80;1.70;;;;;;;;;;5010391;28;20190;-58
2022/06/27 09:27:44;;;;;;;1.87;1.77;;;;;;;;;;5001824;28;20842;-58
2022/06/27 09:30:22;;;;;;;1.80;1.70;;;;;;;;;;5000890;28;20532;-57
2022/06/27 09:32:49;;;;;;;1.80;1.70;;;;;;;;;;5005344;28;20540;-56
2022/06/27 09:35:22;;;;;;;1.60;1.60;;;;;;;;;;4990620;28;20180;-57
2022/06/27 09:37:52;;;;;;;1.60;1.60;;;;;;;;;;4999301;28;20201;-58
2022/06/27 09:40:18;;;;;;;1.60;1.60;;;;;;;;;;5001428;28;20277;-56
2022/06/27 09:42:44;;;;;;;1.75;1.70;;;;;;;;;;5002084;28;20181;-59
2022/06/27 09:45:10;;;;;;;1.73;1.70;;;;;;;;;;4969795;28;20692;-56
2022/06/27 09:47:36;;;;;;;1.80;1.70;;;;;;;;;;5002803;28;20201;-57
2022/06/27 09:50:03;;;;;;;1.80;1.70;;;;;;;;;;4995562;28;20178;-58
2022/06/27 09:52:28;;;;;;;1.60;1.60;;;;;;;;;;4994664;28;20326;-59
2022/06/27 09:54:55;;;;;;;1.60;1.60;;;;;;;;;;5006199;28;20270;-58
2022/06/27 09:57:21;;;;;;;1.60;1.60;;;;;;;;;;4998966;28;20221;-60
2022/06/27 09:59:49;;;;;;;1.60;1.60;;;;;;;;;;5003730;28;20745;-58
2022/06/27 10:02:16;;;;;;;1.50;1.50;;;;;;;;;;5009007;28;20627;-60
2022/06/27 10:04:43;;;;;;;1.50;1.50;;;;;;;;;;4999741;28;20600;-60
2022/06/27 10:07:09;;;;;;;1.50;1.50;;;;;;;;;;4994305;28;20666;-59
2022/06/27 10:09:36;;;;;;;1.65;1.65;;;;;;;;;;4985943;28;20216;-60
2022/06/27 10:12:24;;;;;;;1.50;1.50;;;;;;;;;;4995620;28;20264;-60
2022/06/27 10:15:09;;;;;;;1.50;1.50;;;;;;;;;;5001819;28;20222;-59
2022/06/27 10:17:38;;;;;;;1.50;1.50;;;;;;;;;;5008699;28;20283;-58
2022/06/27 10:20:12;;;;;;;1.40;1.40;;;;;;;;;;5008458;28;20217;-59
2022/06/27 10:22:38;;;;;;;1.70;1.65;;;;;;;;;;5007461;28;20228;-60
2022/06/27 10:25:22;;;;;;;1.50;1.50;;;;;;;;;;5000296;28;20258;-60
2022/06/27 10:27:48;;;;;;;1.55;1.55;;;;;;;;;;5005723;28;20220;-59
2022/06/27 10:30:33;;;;;;;1.50;1.50;;;;;;;;;;4992685;28;20249;-59
2022/06/27 10:33:00;;;;;;;1.60;1.60;;;;;;;;;;4997626;28;20186;-59
2022/06/27 10:35:26;;;;;;;1.55;1.55;;;;;;;;;;5006977;28;20201;-59
2022/06/27 10:37:52;;;;;;;1.60;1.60;;;;;;;;;;5004371;28;20189;-59
2022/06/27 10:40:20;;;;;;;1.50;1.50;;;;;;;;;;5007106;28;20242;-58
2022/06/27 10:42:53;;;;;;;1.50;1.50;;;;;;;;;;4999366;28;20714;-60
2022/06/27 10:45:27;;;;;;;1.60;1.60;;;;;;;;;;4996266;28;20384;-60
2022/06/27 10:48:01;;;;;;;1.50;1.50;;;;;;;;;;5004845;28;20194;-60
2022/06/27 10:50:28;;;;;;;1.50;1.50;;;;;;;;;;5010207;28;20183;-60
2022/06/27 10:53:17;;;;;;;1.60;1.60;;;;;;;;;;5007293;28;20217;-60
2022/06/27 10:55:43;;;;;;;1.40;1.40;;;;;;;;;;4998706;28;20205;-60
2022/06/27 10:58:28;;;;;;;1.50;1.50;;;;;;;;;;4986535;28;20563;-61
2022/06/27 11:01:11;;;;;;;1.60;1.60;;;;;;;;;;5009187;28;20275;-61
2022/06/27 11:03:37;;;;;;;1.60;1.60;;;;;;;;;;4974012;28;20196;-59
2022/06/27 11:06:04;;;;;;;1.70;1.70;;;;;;;;;;4966779;28;20213;-59
2022/06/27 11:08:30;;;;;;;1.63;1.63;;;;;;;;;;4988482;28;20855;-59
2022/06/27 11:10:56;;;;;;;1.50;1.50;;;;;;;;;;4968111;28;20905;-60
2022/06/27 11:13:38;;;;;;;1.67;1.67;;;;;;;;;;4983488;28;20180;-60
2022/06/27 11:16:05;;;;;;;1.50;1.50;;;;;;;;;;4991620;28;20196;-58
2022/06/27 11:18:41;;;;;;;1.70;1.60;;;;;;;;;;4987180;28;20197;-59
2022/06/27 11:21:07;;;;;;;1.70;1.60;;;;;;;;;;4989098;28;20495;-60
2022/06/27 11:23:47;;;;;;;1.52;1.52;;;;;;;;;;5001016;28;20829;-60
2022/06/27 11:26:13;;;;;;;1.60;1.60;;;;;;;;;;4997440;28;20275;-60
2022/06/27 11:34:08;;;;;;;1.42;1.42;;;;;;;;;;4993186;28;20320;-60
2022/06/27 11:36:34;;;;;;;1.67;1.67;;;;;;;;;;5000532;28;20201;-59
2022/06/27 11:39:00;;;;;;;1.60;1.60;;;;;;;;;;5004124;28;20190;-60
2022/06/27 11:41:27;;;;;;;1.50;1.50;;;;;;;;;;5006035;28;20669;-61
2022/06/27 11:43:58;;;;;;;1.50;1.50;;;;;;;;;;5006467;28;20724;-56
2022/06/27 11:46:31;;;;;;;1.50;1.50;;;;;;;;;;4997891;28;20181;-56
2022/06/27 11:49:01;;;;;;;1.40;1.40;;;;;;;;;;5006227;28;20223;-56
2022/06/27 11:51:28;;;;;;;1.40;1.40;;;;;;;;;;5008104;28;20186;-57
2022/06/27 11:53:55;;;;;;;1.50;1.50;;;;;;;;;;5006691;28;20228;-58
2022/06/27 11:56:24;;;;;;;1.50;1.50;;;;;;;;;;5005852;28;20197;-57
2022/06/27 11:58:51;;;;;;;1.10;1.10;;;;;;;;;;5002703;28;20230;-57
2022/06/27 12:01:17;;;;;;;1.58;1.58;;;;;;;;;;5001759;28;20199;-56
2022/06/27 12:04:03;;;;;;;1.40;1.40;;;;;;;;;;5001712;28;20548;-57
2022/06/27 12:06:29;;;;;;;1.50;1.50;;;;;;;;;;4997653;28;22294;-57
2022/06/27 12:09:01;;;;;;;1.60;1.60;;;;;;;;;;5004071;28;20229;-55
2022/06/27 12:11:28;;;;;;;1.50;1.50;;;;;;;;;;5000390;28;20785;-57
2022/06/27 12:13:59;;;;;;;1.63;1.63;;;;;;;;;;5003348;28;20196;-60
2022/06/27 12:16:24;;;;;;;1.20;1.20;;;;;;;;;;5004595;28;20610;-60
2022/06/27 12:18:51;;;;;;;1.45;1.45;;;;;;;;;;4989122;28;20185;-59
2022/06/27 12:21:17;;;;;;;1.40;1.40;;;;;;;;;;5003875;28;20603;-57
2022/06/27 12:23:43;;;;;;;1.50;1.50;;;;;;;;;;4993726;28;20817;-57
2022/06/27 12:26:10;;;;;;;1.60;1.60;;;;;;;;;;5004021;28;20835;-56
2022/06/27 12:28:36;;;;;;;1.80;1.70;;;;;;;;;;5004842;28;20229;-57
2022/06/27 12:31:02;;;;;;;1.60;1.60;;;;;;;;;;4999824;28;20260;-55
2022/06/27 12:33:28;;;;;;;1.63;1.63;;;;;;;;;;5006140;28;20549;-56
2022/06/27 12:35:54;;;;;;;1.27;1.27;;;;;;;;;;4999843;28;20259;-57
2022/06/27 12:38:20;;;;;;;1.20;1.20;;;;;;;;;;5012641;28;20196;-56
2022/06/27 12:40:46;;;;;;;1.45;1.45;;;;;;;;;;5002560;28;20190;-57
2022/06/27 12:43:12;;;;;;;1.35;1.35;;;;;;;;;;5003670;28;20200;-55
2022/06/27 12:45:39;;;;;;;1.40;1.40;;;;;;;;;;5003670;28;20194;-56
2022/06/27 12:48:05;;;;;;;1.48;1.48;;;;;;;;;;5005891;28;20794;-56
2022/06/27 12:50:32;;;;;;;1.42;1.42;;;;;;;;;;5008804;28;20669;-55
2022/06/27 12:52:58;;;;;;;1.30;1.30;;;;;;;;;;5002669;28;20212;-57
2022/06/27 12:55:23;;;;;;;1.58;1.58;;;;;;;;;;5000295;28;20258;-56
2022/06/27 12:57:49;;;;;;;1.42;1.42;;;;;;;;;;4994563;28;20326;-61
2022/06/27 13:00:16;;;;;;;1.20;1.20;;;;;;;;;;5007054;28;20786;-60
2022/06/27 13:02:41;;;;;;;1.30;1.30;;;;;;;;;;4994830;28;20223;-61
2022/06/27 13:05:07;;;;;;;1.38;1.38;;;;;;;;;;5004671;28;20235;-60
2022/06/27 13:07:34;;;;;;;1.40;1.40;;;;;;;;;;5000700;28;20654;-61
2022/06/27 13:09:59;;;;;;;1.40;1.40;;;;;;;;;;4994973;28;20304;-61
2022/06/27 13:12:25;;;;;;;1.40;1.40;;;;;;;;;;5010517;28;20184;-61
2022/06/27 13:14:51;;;;;;;1.33;1.33;;;;;;;;;;5007966;28;20216;-60
2022/06/27 13:17:17;;;;;;;1.30;1.30;;;;;;;;;;5014820;28;20610;-61
2022/06/27 13:19:43;;;;;;;1.30;1.30;;;;;;;;;;5008766;28;20193;-61
2022/06/27 13:22:09;;;;;;;1.40;1.40;;;;;;;;;;5007298;28;20193;-61
2022/06/27 13:24:35;;;;;;;1.40;1.40;;;;;;;;;;5007532;28;20192;-61
2022/06/27 13:27:01;;;;;;;1.40;1.40;;;;;;;;;;5003568;28;20522;-61
2022/06/27 13:29:27;;;;;;;1.45;1.45;;;;;;;;;;5005977;28;20354;-61
2022/06/27 13:31:54;;;;;;;1.20;1.20;;;;;;;;;;5006491;28;20185;-61
2022/06/27 13:34:20;;;;;;;1.20;1.20;;;;;;;;;;4998956;28;20185;-61
2022/06/27 13:36:47;;;;;;;1.40;1.40;;;;;;;;;;5003470;28;20685;-63
2022/06/27 13:39:13;;;;;;;1.50;1.50;;;;;;;;;;4996733;28;20284;-62
2022/06/27 13:41:39;;;;;;;1.60;1.60;;;;;;;;;;5001806;28;20654;-62
2022/06/27 13:44:06;;;;;;;1.40;1.40;;;;;;;;;;5002348;28;20623;-62
2022/06/27 13:46:32;;;;;;;1.33;1.33;;;;;;;;;;5000150;28;20188;-62
2022/06/27 13:48:58;;;;;;;1.30;1.30;;;;;;;;;;5006934;28;20988;-62
2022/06/27 13:51:24;;;;;;;1.35;1.35;;;;;;;;;;5008256;28;20193;-62
2022/06/27 13:53:50;;;;;;;1.20;1.20;;;;;;;;;;5013273;28;20707;-62
2022/06/27 13:56:16;;;;;;;1.08;1.08;;;;;;;;;;4993017;28;20182;-62
2022/06/27 13:58:42;;;;;;;1.20;1.20;;;;;;;;;;5002349;28;20741;-62
2022/06/27 14:01:09;;;;;;;1.30;1.30;;;;;;;;;;5008913;28;20304;-62
2022/06/27 14:03:35;;;;;;;1.33;1.33;;;;;;;;;;5008427;28;20185;-62
2022/06/27 14:08:46;;;;;;;1.52;1.52;;;;;;;;;;5004183;28;20339;-62
2022/06/27 14:11:12;;;;;;;1.52;1.52;;;;;;;;;;5009345;28;20193;-62
2022/06/27 14:13:39;;;;;;;1.50;1.50;;;;;;;;;;5005463;28;20191;-61
2022/06/27 14:16:05;;;;;;;1.60;1.60;;;;;;;;;;5002185;28;20192;-62
2022/06/27 14:18:31;;;;;;;1.45;1.45;;;;;;;;;;5000249;28;20611;-62
2022/06/27 14:20:57;;;;;;;1.60;1.60;;;;;;;;;;5001820;28;20192;-62
2022/06/27 14:23:23;;;;;;;1.80;1.70;;;;;;;;;;5000558;28;20263;-59
2022/06/27 14:25:50;;;;;;;1.80;1.70;;;;;;;;;;5005987;28;20370;-59
2022/06/27 14:28:16;;;;;;;2.10;2.00;;;;;;;;;;5001844;28;20268;-59
2022/06/27 14:30:42;;;;;;;1.80;1.70;;;;;;;;;;5000734;28;20188;-62
2022/06/27 14:33:08;;;;;;;1.80;1.70;;;;;;;;;;5004179;28;20220;-61
2022/06/27 14:35:34;;;;;;;1.60;1.50;;;;;;;;;;5008362;28;20223;-62
2022/06/27 14:38:01;;;;;;;1.90;1.80;;;;;;;;;;5007823;28;20553;-62
2022/06/27 14:40:27;;;;;;;1.85;1.75;;;;;;;;;;5004140;28;20194;-60
2022/06/27 14:42:53;;;;;;;1.67;1.60;;;;;;;;;;5008669;28;20190;-62
2022/06/27 14:45:19;;;;;;;1.77;1.67;;;;;;;;;;5000087;28;20181;-62
2022/06/27 14:47:46;;;;;;;1.60;1.60;;;;;;;;;;5005235;28;20599;-61
2022/06/27 14:50:13;;;;;;;1.40;1.40;;;;;;;;;;5009659;28;21357;-62
2022/06/27 14:52:39;;;;;;;1.50;1.50;;;;;;;;;;5004458;28;20555;-62